createdAt,value
2018-04-30T00:02:25.204Z,7.60
2018-04-30T00:04:53.832Z,17.23
2018-04-30T00:07:21.517Z,10.67
2018-04-30T00:09:49.361Z,12.63
2018-04-30T00:12:17.232Z,8.10
2018-04-30T00:14:44.917Z,5.57
2018-04-30T00:17:12.752Z,6.27
2018-04-30T00:19:40.517Z,3.87
2018-04-30T00:22:08.208Z,7.30
2018-04-30T00:24:35.836Z,4.83
2018-04-30T00:27:03.469Z,4.03
2018-04-30T00:29:31.161Z,6.67
2018-04-30T00:31:58.781Z,5.07
2018-04-30T00:34:27.180Z,4.13
2018-04-30T00:36:55.073Z,11.47
2018-04-30T00:39:22.936Z,8.57
2018-04-30T00:41:50.801Z,12.43
2018-04-30T00:44:18.686Z,6.60
2018-04-30T00:46:46.536Z,21.67
2018-04-30T00:49:14.184Z,77.63
2018-04-30T00:51:42.040Z,40.03
2018-04-30T00:54:09.676Z,34.60
2018-04-30T00:56:38.108Z,27.23
2018-04-30T00:59:06.213Z,19.47
2018-04-30T01:01:34.755Z,20.87
2018-04-30T01:04:02.409Z,24.53
2018-04-30T01:06:30.283Z,21.53
2018-04-30T01:08:57.924Z,13.47
2018-04-30T01:11:25.558Z,13.23
2018-04-30T01:13:54.168Z,10.27
2018-04-30T01:16:21.955Z,5.30
2018-04-30T01:18:49.837Z,8.73
2018-04-30T01:21:17.669Z,10.13
2018-04-30T01:23:45.300Z,6.50
2018-04-30T01:26:13.835Z,10.80
2018-04-30T01:28:41.705Z,6.70
2018-04-30T01:31:09.716Z,8.70
2018-04-30T01:33:38.105Z,4.07
2018-04-30T01:36:06.593Z,6.27
2018-04-30T01:38:34.221Z,4.07
2018-04-30T01:41:01.956Z,6.57
2018-04-30T01:43:29.718Z,6.23
2018-04-30T01:45:57.521Z,6.20
2018-04-30T01:48:25.946Z,7.53
2018-04-30T01:50:53.629Z,5.20
2018-04-30T01:53:21.489Z,5.73
2018-04-30T01:55:49.126Z,7.03
2018-04-30T01:58:16.918Z,7.17
2018-04-30T02:00:44.565Z,6.83
2018-04-30T02:03:12.347Z,9.53
2018-04-30T02:05:40.288Z,6.00
2018-04-30T02:08:08.075Z,5.27
2018-04-30T02:10:35.946Z,7.53
2018-04-30T02:13:04.216Z,6.53
2018-04-30T02:15:31.852Z,5.83
2018-04-30T02:17:59.489Z,5.17
2018-04-30T02:20:28.122Z,5.27
2018-04-30T02:22:55.934Z,5.47
2018-04-30T02:25:24.340Z,6.20
2018-04-30T02:27:52.644Z,4.93
2018-04-30T02:30:20.517Z,5.53
2018-04-30T02:32:48.157Z,5.57
2018-04-30T02:35:15.924Z,7.10
2018-04-30T02:37:43.553Z,12.10
2018-04-30T02:40:11.975Z,10.33
2018-04-30T02:42:39.663Z,12.13
2018-04-30T02:45:07.303Z,9.83
2018-04-30T02:47:34.989Z,8.23
2018-04-30T02:50:02.728Z,7.83
2018-04-30T02:52:30.356Z,9.70
2018-04-30T02:54:58.761Z,10.20
2018-04-30T02:57:26.495Z,7.57
2018-04-30T02:59:54.303Z,8.77
2018-04-30T03:02:21.945Z,10.43
2018-04-30T03:04:49.624Z,9.30
2018-04-30T03:07:17.256Z,11.67
2018-04-30T03:09:44.899Z,15.33
2018-04-30T03:12:13.673Z,9.83
2018-04-30T03:14:42.080Z,9.70
2018-04-30T03:17:09.709Z,9.93
2018-04-30T03:19:39.314Z,8.87
2018-04-30T03:22:07.736Z,13.60
2018-04-30T03:24:35.365Z,11.90
2018-04-30T03:27:03.892Z,9.13
2018-04-30T03:29:31.520Z,12.83
2018-04-30T03:31:59.913Z,9.20
2018-04-30T03:34:27.607Z,11.40
2018-04-30T03:36:55.241Z,8.63
2018-04-30T03:39:22.924Z,9.37
2018-04-30T03:41:50.593Z,9.77
2018-04-30T03:44:18.286Z,10.10
2018-04-30T03:46:45.924Z,12.70
2018-04-30T03:49:14.009Z,18.40
2018-04-30T03:51:43.184Z,22.97
2018-04-30T03:54:10.820Z,8.13
2018-04-30T03:56:38.689Z,12.97
2018-04-30T03:59:06.352Z,13.23
2018-04-30T04:01:45.865Z,13.87
2018-04-30T04:04:26.237Z,11.10
2018-04-30T04:06:54.123Z,12.07
2018-04-30T04:09:21.750Z,7.50
2018-04-30T04:11:50.148Z,11.83
2018-04-30T04:14:18.025Z,10.57
2018-04-30T04:16:45.810Z,12.43
2018-04-30T04:19:13.449Z,7.77
2018-04-30T04:21:41.237Z,12.93
2018-04-30T04:24:08.883Z,13.40
2018-04-30T04:26:36.519Z,9.57
2018-04-30T04:29:05.146Z,10.87
2018-04-30T04:31:33.017Z,8.27
2018-04-30T04:34:00.662Z,10.80
2018-04-30T04:36:28.349Z,11.20
2018-04-30T04:38:56.201Z,10.90
2018-04-30T04:41:23.844Z,12.97
2018-04-30T04:43:51.705Z,13.87
2018-04-30T04:46:19.494Z,16.13
2018-04-30T04:48:47.142Z,10.30
2018-04-30T04:51:15.022Z,18.27
2018-04-30T04:53:42.885Z,12.53
2018-04-30T04:56:10.528Z,9.33
2018-04-30T04:58:38.597Z,14.00
2018-04-30T05:01:06.257Z,10.90
2018-04-30T05:03:33.888Z,8.37
2018-04-30T05:06:02.510Z,8.53
2018-04-30T05:08:30.297Z,7.87
2018-04-30T05:10:57.957Z,9.17
2018-04-30T05:13:27.181Z,8.40
2018-04-30T05:15:54.813Z,11.47
2018-04-30T05:18:22.677Z,13.43
2018-04-30T05:20:51.998Z,6.73
2018-04-30T05:23:19.612Z,8.67
2018-04-30T05:25:47.476Z,8.80
2018-04-30T05:28:15.177Z,12.73
2018-04-30T05:30:42.905Z,11.80
2018-04-30T05:33:10.737Z,15.93
2018-04-30T05:35:38.424Z,15.00
2018-04-30T05:38:06.836Z,9.80
2018-04-30T05:40:35.237Z,12.67
2018-04-30T05:43:02.948Z,6.50
2018-04-30T05:45:32.092Z,7.63
2018-04-30T05:47:59.888Z,11.70
2018-04-30T05:50:27.621Z,7.17
2018-04-30T05:52:55.265Z,9.13
2018-04-30T05:55:23.664Z,6.53
2018-04-30T05:57:51.657Z,10.93
2018-04-30T06:00:20.201Z,8.57
2018-04-30T06:02:48.068Z,8.73
2018-04-30T06:05:16.041Z,14.17
2018-04-30T06:07:43.900Z,6.63
2018-04-30T06:10:11.544Z,10.17
2018-04-30T06:12:39.474Z,9.33
2018-04-30T06:15:08.030Z,10.23
2018-04-30T06:17:36.548Z,11.27
2018-04-30T06:20:04.562Z,13.90
2018-04-30T06:22:32.198Z,8.03
2018-04-30T06:24:59.846Z,12.43
2018-04-30T06:27:28.579Z,11.27
2018-04-30T06:29:56.444Z,17.63
2018-04-30T06:32:24.305Z,10.00
2018-04-30T06:34:52.156Z,18.37
2018-04-30T06:37:19.789Z,19.33
2018-04-30T06:39:48.195Z,9.10
2018-04-30T06:42:16.500Z,13.13
2018-04-30T06:44:44.264Z,16.47
2018-04-30T06:47:11.900Z,7.80
2018-04-30T06:49:39.580Z,11.23
2018-04-30T06:52:07.450Z,154.70
2018-04-30T06:54:35.094Z,13.47
2018-04-30T06:57:02.781Z,11.43
2018-04-30T06:59:30.425Z,14.80
2018-04-30T07:01:58.068Z,9.43
2018-04-30T07:04:25.754Z,11.77
2018-04-30T07:06:53.524Z,10.57
2018-04-30T07:09:21.194Z,11.40
2018-04-30T07:11:48.984Z,17.67
2018-04-30T07:14:17.393Z,13.57
2018-04-30T07:16:45.101Z,8.57
2018-04-30T07:19:12.968Z,19.73
2018-04-30T07:21:41.003Z,11.47
2018-04-30T07:24:08.790Z,8.10
2018-04-30T07:26:36.621Z,12.00
2018-04-30T07:29:04.416Z,9.63
2018-04-30T07:31:32.060Z,7.87
2018-04-30T07:33:59.749Z,12.23
2018-04-30T07:36:27.513Z,11.07
2018-04-30T07:38:55.375Z,7.50
2018-04-30T07:41:23.324Z,7.33
2018-04-30T07:43:50.957Z,6.37
2018-04-30T07:46:19.360Z,10.47
2018-04-30T07:48:47.212Z,12.17
2018-04-30T07:51:15.830Z,7.27
2018-04-30T07:53:43.475Z,10.67
2018-04-30T07:56:11.467Z,11.93
2018-04-30T07:58:39.108Z,8.10
2018-04-30T08:01:06.741Z,6.93
2018-04-30T08:03:35.472Z,8.73
2018-04-30T08:06:03.152Z,14.67
2018-04-30T08:08:30.841Z,5.03
2018-04-30T08:10:59.665Z,4.87
2018-04-30T08:13:27.296Z,5.50
2018-04-30T08:15:55.740Z,7.60
2018-04-30T08:18:23.568Z,8.13
2018-04-30T08:20:51.358Z,10.20
2018-04-30T08:23:19.000Z,6.10
2018-04-30T08:25:46.693Z,12.77
2018-04-30T08:28:14.353Z,15.23
2018-04-30T08:30:41.985Z,10.70
2018-04-30T08:33:09.721Z,9.67
2018-04-30T08:35:38.154Z,7.33
2018-04-30T08:38:06.016Z,7.23
2018-04-30T08:40:33.859Z,4.63
2018-04-30T08:43:01.640Z,8.20
2018-04-30T08:45:29.285Z,6.53
2018-04-30T08:47:57.256Z,7.17
2018-04-30T08:50:25.043Z,6.37
2018-04-30T08:52:52.914Z,7.93
2018-04-30T08:55:20.775Z,5.97
2018-04-30T08:57:48.432Z,7.43
2018-04-30T09:00:16.090Z,10.00
2018-04-30T09:02:43.941Z,7.60
2018-04-30T09:05:11.726Z,28.37
2018-04-30T09:07:39.368Z,20.40
2018-04-30T09:10:07.120Z,49.27
2018-04-30T09:12:34.919Z,8.27
2018-04-30T09:15:02.613Z,5.33
2018-04-30T09:17:30.285Z,6.33
2018-04-30T09:19:58.831Z,5.63
2018-04-30T09:22:26.484Z,11.13
2018-04-30T09:24:54.176Z,11.90
2018-04-30T09:27:22.009Z,10.00
2018-04-30T09:29:49.881Z,11.43
2018-04-30T09:32:17.850Z,16.27
2018-04-30T09:34:45.717Z,6.67
2018-04-30T09:37:13.360Z,9.07
2018-04-30T09:39:41.443Z,11.17
2018-04-30T09:42:09.317Z,6.37
2018-04-30T09:44:36.960Z,10.57
2018-04-30T09:47:04.855Z,9.40
2018-04-30T09:49:32.709Z,9.77
2018-04-30T09:52:00.353Z,7.90
2018-04-30T09:54:28.647Z,12.93
2018-04-30T09:56:56.517Z,9.80
2018-04-30T09:59:24.157Z,8.33
2018-04-30T10:01:51.965Z,8.30
2018-04-30T10:04:19.720Z,9.10
2018-04-30T10:06:47.359Z,7.13
2018-04-30T10:09:15.231Z,13.67
2018-04-30T10:11:42.933Z,8.00
2018-04-30T10:14:11.341Z,8.97
2018-04-30T10:16:39.796Z,14.40
2018-04-30T10:19:07.428Z,11.67
2018-04-30T10:21:35.061Z,10.17
2018-04-30T10:24:02.942Z,6.20
2018-04-30T10:26:30.587Z,9.17
2018-04-30T10:28:58.229Z,8.73
2018-04-30T10:31:26.335Z,6.77
2018-04-30T10:33:54.205Z,7.17
2018-04-30T10:36:21.880Z,9.60
2018-04-30T10:38:49.564Z,22.00
2018-04-30T10:41:17.222Z,8.93
2018-04-30T10:43:44.848Z,9.33
2018-04-30T10:46:12.719Z,16.10
2018-04-30T10:48:40.357Z,7.83
2018-04-30T10:51:07.992Z,11.03
2018-04-30T10:53:36.626Z,10.17
2018-04-30T10:56:04.493Z,10.90
2018-04-30T10:58:32.141Z,12.53
2018-04-30T11:01:00.705Z,16.40
2018-04-30T11:03:28.496Z,12.27
2018-04-30T11:05:56.140Z,11.10
2018-04-30T11:08:24.108Z,6.67
2018-04-30T11:10:51.897Z,10.73
2018-04-30T11:13:19.551Z,31.07
2018-04-30T11:15:47.425Z,11.93
2018-04-30T11:18:15.075Z,15.97
2018-04-30T11:20:42.713Z,15.00
2018-04-30T11:23:10.716Z,13.93
2018-04-30T11:25:38.588Z,14.53
2018-04-30T11:28:06.226Z,12.23
2018-04-30T11:30:34.085Z,13.37
2018-04-30T11:33:01.712Z,7.43
2018-04-30T11:35:29.377Z,6.30
2018-04-30T11:37:57.838Z,10.90
2018-04-30T11:40:25.529Z,8.80
2018-04-30T11:42:53.177Z,8.60
2018-04-30T11:45:21.130Z,8.93
2018-04-30T11:47:48.817Z,68.67
2018-04-30T11:50:17.225Z,15.70
2018-04-30T11:52:45.292Z,6.43
2018-04-30T11:55:12.933Z,7.77
2018-04-30T11:57:40.597Z,7.93
2018-04-30T12:00:08.310Z,7.17
2018-04-30T12:02:36.187Z,8.03
2018-04-30T12:05:04.101Z,5.37
2018-04-30T12:07:32.541Z,5.40
2018-04-30T12:10:00.188Z,8.00
2018-04-30T12:12:27.841Z,5.33
2018-04-30T12:14:55.706Z,4.97
2018-04-30T12:17:23.408Z,13.45
2018-04-30T12:19:51.911Z,8.68
2018-04-30T12:22:20.610Z,10.00
2018-04-30T12:24:48.313Z,11.20
2018-04-30T12:27:16.752Z,6.82
2018-04-30T12:29:44.490Z,11.35
2018-04-30T12:32:12.246Z,18.08
2018-04-30T12:34:39.941Z,138.82
2018-04-30T12:37:08.040Z,11.80
2018-04-30T12:39:35.901Z,9.43
2018-04-30T12:42:03.556Z,12.07
2018-04-30T12:44:31.408Z,11.23
2018-04-30T12:47:00.761Z,126.13
2018-04-30T12:49:28.610Z,7.17
2018-04-30T12:51:57.108Z,24.50
2018-04-30T12:54:24.805Z,15.90
2018-04-30T12:56:52.451Z,28.57
2018-04-30T12:59:20.908Z,11.17
2018-04-30T13:01:48.605Z,10.37
2018-04-30T13:04:16.262Z,10.07
2018-04-30T13:06:45.001Z,60.63
2018-04-30T13:09:12.721Z,11.50
2018-04-30T13:11:41.164Z,10.43
2018-04-30T13:14:08.913Z,10.63
2018-04-30T13:16:36.586Z,14.40
2018-04-30T13:19:04.223Z,12.80
2018-04-30T13:21:32.001Z,51.53
2018-04-30T13:23:59.634Z,55.73
2018-04-30T13:26:27.313Z,17.47
2018-04-30T13:28:55.000Z,9.93
2018-04-30T13:31:22.633Z,9.43
2018-04-30T13:33:50.278Z,11.27
2018-04-30T13:36:17.962Z,9.53
2018-04-30T13:38:46.357Z,9.37
2018-04-30T13:41:14.050Z,10.00
2018-04-30T13:43:42.565Z,10.30
2018-04-30T13:46:10.948Z,15.63
2018-04-30T13:48:38.581Z,9.60
2018-04-30T13:51:07.293Z,11.20
2018-04-30T13:53:34.923Z,7.50
2018-04-30T13:56:03.324Z,6.07
2018-04-30T13:58:31.069Z,13.90
2018-04-30T14:00:58.768Z,7.17
2018-04-30T14:03:26.479Z,9.83
2018-04-30T14:05:54.950Z,11.17
2018-04-30T14:08:22.588Z,5.47
2018-04-30T14:10:50.226Z,4.83
2018-04-30T14:13:18.193Z,6.23
2018-04-30T14:15:45.844Z,8.33
2018-04-30T14:18:13.533Z,10.50
2018-04-30T14:20:41.377Z,12.77
2018-04-30T14:23:09.009Z,4.83
2018-04-30T14:25:37.476Z,10.60
2018-04-30T14:28:06.258Z,11.03
2018-04-30T14:30:33.989Z,6.00
2018-04-30T14:33:01.637Z,20.57
2018-04-30T14:35:29.317Z,9.20
2018-04-30T14:37:56.952Z,10.00
2018-04-30T14:40:24.742Z,10.50
2018-04-30T14:42:52.499Z,141.47
2018-04-30T14:45:20.148Z,25.07
2018-04-30T14:47:47.784Z,5.33
2018-04-30T14:50:16.386Z,14.57
2018-04-30T14:52:44.025Z,38.47
2018-04-30T14:55:12.429Z,10.93
2018-04-30T14:57:40.109Z,22.67
2018-04-30T15:00:07.774Z,5.97
2018-04-30T15:02:35.472Z,21.00
2018-04-30T15:05:03.948Z,23.47
2018-04-30T15:07:31.584Z,85.13
2018-04-30T15:09:59.277Z,17.63
2018-04-30T15:12:27.786Z,10.20
2018-04-30T15:14:55.438Z,13.87
2018-04-30T15:17:23.898Z,22.97
2018-04-30T15:19:51.605Z,15.60
2018-04-30T15:22:19.253Z,22.17
2018-04-30T15:24:46.884Z,11.03
2018-04-30T15:27:14.838Z,8.57
2018-04-30T15:29:42.449Z,10.23
2018-04-30T15:32:10.137Z,14.17
2018-04-30T15:34:38.796Z,22.23
2018-04-30T15:37:06.686Z,44.10
2018-04-30T15:39:34.324Z,13.77
2018-04-30T15:42:02.291Z,24.20
2018-04-30T15:44:29.925Z,29.67
2018-04-30T15:46:57.560Z,14.57
2018-04-30T15:49:26.181Z,11.13
2018-04-30T15:51:53.817Z,10.60
2018-04-30T15:54:22.265Z,55.47
2018-04-30T15:56:50.108Z,168.83
2018-04-30T15:59:17.746Z,19.07
2018-04-30T16:01:45.661Z,39.17
2018-04-30T16:04:13.707Z,30.80
2018-04-30T16:06:41.355Z,21.67
2018-04-30T16:09:08.992Z,22.70
2018-04-30T16:11:37.540Z,41.53
2018-04-30T16:14:05.407Z,16.50
2018-04-30T16:16:33.857Z,30.80
2018-04-30T16:19:01.813Z,31.57
2018-04-30T16:21:29.607Z,22.50
2018-04-30T16:23:57.256Z,18.30
2018-04-30T16:26:25.139Z,12.60
2018-04-30T16:28:52.777Z,22.93
2018-04-30T16:31:20.416Z,11.57
2018-04-30T16:33:48.145Z,48.20
2018-04-30T16:36:15.804Z,56.23
2018-04-30T16:38:43.549Z,66.10
2018-04-30T16:41:11.620Z,19.27
2018-04-30T16:43:39.265Z,15.00
2018-04-30T16:46:06.920Z,24.83
2018-04-30T16:48:34.605Z,18.20
2018-04-30T16:51:02.244Z,49.73
2018-04-30T16:53:30.025Z,65.77
2018-04-30T16:55:58.039Z,74.67
2018-04-30T16:58:26.603Z,56.70
2018-04-30T17:00:54.447Z,21.37
2018-04-30T17:03:22.419Z,30.33
2018-04-30T17:05:50.284Z,22.90
2018-04-30T17:08:17.928Z,28.80
2018-04-30T17:10:45.818Z,14.50
2018-04-30T17:13:13.460Z,43.87
2018-04-30T17:15:41.129Z,21.93
2018-04-30T17:18:09.221Z,32.87
2018-04-30T17:20:37.224Z,21.60
2018-04-30T17:23:05.632Z,26.80
2018-04-30T17:25:33.317Z,63.07
2018-04-30T17:28:00.953Z,62.27
2018-04-30T17:30:28.674Z,90.63
2018-04-30T17:32:56.316Z,202.40
2018-04-30T17:35:24.163Z,87.23
2018-04-30T17:37:51.816Z,151.90
2018-04-30T17:40:19.513Z,288.50
2018-04-30T17:42:47.330Z,513.73
2018-04-30T17:45:15.139Z,591.93
2018-04-30T17:47:43.773Z,186.07
2018-04-30T17:50:11.418Z,223.27
2018-04-30T17:52:39.064Z,204.50
2018-04-30T17:55:07.051Z,341.60
2018-04-30T17:57:34.705Z,255.33
2018-04-30T18:00:02.977Z,129.13
2018-04-30T18:02:30.713Z,130.07
2018-04-30T18:04:58.561Z,153.73
2018-04-30T18:07:26.437Z,185.00
2018-04-30T18:09:54.124Z,219.17
2018-04-30T18:12:21.770Z,228.77
2018-04-30T18:14:49.418Z,147.53
2018-04-30T18:17:17.506Z,149.80
2018-04-30T18:19:45.187Z,144.67
2018-04-30T18:22:12.829Z,120.20
2018-04-30T18:24:40.679Z,101.70
2018-04-30T18:27:08.329Z,267.63
2018-04-30T18:29:36.965Z,108.17
2018-04-30T18:32:04.822Z,58.17
2018-04-30T18:34:32.468Z,78.27
2018-04-30T18:37:00.108Z,73.17
2018-04-30T18:39:28.361Z,78.83
2018-04-30T18:41:56.001Z,76.17
2018-04-30T18:44:23.897Z,85.83
2018-04-30T18:46:52.368Z,64.20
2018-04-30T18:49:20.013Z,76.70
2018-04-30T18:51:47.794Z,55.03
2018-04-30T18:54:15.634Z,59.67
2018-04-30T18:56:43.449Z,52.87
2018-04-30T18:59:11.105Z,44.00
2018-04-30T19:01:38.802Z,45.23
2018-04-30T19:04:06.442Z,45.53
2018-04-30T19:06:34.251Z,47.00
2018-04-30T19:09:02.388Z,33.33
2018-04-30T19:11:30.641Z,28.57
2018-04-30T19:13:58.467Z,30.00
2018-04-30T19:16:26.164Z,22.83
2018-04-30T19:18:53.996Z,19.93
2018-04-30T19:21:21.648Z,19.37
2018-04-30T19:23:49.722Z,11.97
2018-04-30T19:26:17.385Z,44.03
2018-04-30T19:28:45.026Z,15.43
2018-04-30T19:31:12.901Z,28.30
2018-04-30T19:33:40.682Z,24.17
2018-04-30T19:36:08.542Z,18.00
2018-04-30T19:38:36.397Z,34.67
2018-04-30T19:41:04.180Z,27.93
2018-04-30T19:43:31.836Z,182.13
2018-04-30T19:45:59.711Z,21.57
2018-04-30T19:48:27.362Z,20.63
2018-04-30T19:50:55.029Z,21.43
2018-04-30T19:53:22.713Z,13.23
2018-04-30T19:55:51.116Z,17.60
2018-04-30T19:58:19.522Z,24.87
2018-04-30T20:00:47.392Z,10.27
2018-04-30T20:03:15.176Z,10.40
2018-04-30T20:05:42.942Z,10.33
2018-04-30T20:08:10.644Z,6.10
2018-04-30T20:10:39.057Z,12.00
2018-04-30T20:13:06.847Z,6.37
2018-04-30T20:15:34.551Z,11.93
2018-04-30T20:18:03.913Z,7.13
2018-04-30T20:20:31.580Z,6.80
2018-04-30T20:22:59.289Z,7.43
2018-04-30T20:25:27.721Z,5.67
2018-04-30T20:27:55.352Z,9.47
2018-04-30T20:30:23.248Z,7.03
2018-04-30T20:32:50.900Z,6.23
2018-04-30T20:35:18.679Z,7.63
2018-04-30T20:37:46.368Z,8.53
2018-04-30T20:40:14.004Z,7.37
2018-04-30T20:42:41.845Z,7.63
2018-04-30T20:45:09.733Z,6.33
2018-04-30T20:47:37.389Z,8.07
2018-04-30T20:50:05.263Z,6.20
2018-04-30T20:52:33.106Z,8.53
2018-04-30T20:55:00.737Z,6.87
2018-04-30T20:57:29.153Z,6.70
2018-04-30T20:59:57.420Z,8.63
2018-04-30T21:02:25.443Z,11.37
2018-04-30T21:04:53.273Z,12.63
2018-04-30T21:07:21.245Z,11.47
2018-04-30T21:09:48.888Z,6.93
2018-04-30T21:12:16.674Z,18.10
2018-04-30T21:14:44.366Z,8.60
2018-04-30T21:17:12.028Z,6.27
2018-04-30T21:19:39.671Z,7.03
2018-04-30T21:22:07.433Z,6.83
2018-04-30T21:24:35.326Z,8.57
2018-04-30T21:27:03.875Z,8.13
2018-04-30T21:29:31.736Z,9.03
2018-04-30T21:31:59.607Z,14.97
2018-04-30T21:34:27.481Z,9.10
2018-04-30T21:36:56.158Z,10.00
2018-04-30T21:39:23.826Z,12.53
2018-04-30T21:41:51.469Z,10.30
2018-04-30T21:44:19.450Z,10.00
2018-04-30T21:46:47.093Z,9.43
2018-04-30T21:49:14.868Z,8.30
2018-04-30T21:51:42.564Z,6.23
2018-04-30T21:54:10.397Z,16.37
2018-04-30T21:56:38.041Z,19.67
2018-04-30T21:59:05.905Z,15.43
2018-04-30T22:01:33.538Z,9.13
2018-04-30T22:04:01.943Z,11.20
2018-04-30T22:06:30.248Z,13.73
2018-04-30T22:08:57.904Z,19.93
2018-04-30T22:11:25.776Z,40.30
2018-04-30T22:13:53.720Z,40.33
2018-04-30T22:16:21.611Z,34.47
2018-04-30T22:18:49.266Z,23.33
2018-04-30T22:21:17.125Z,25.57
2018-04-30T22:23:44.767Z,31.50
2018-04-30T22:26:12.405Z,28.17
2018-04-30T22:28:41.226Z,30.03
2018-04-30T22:31:09.008Z,17.33
2018-04-30T22:33:36.652Z,32.40
2018-04-30T22:36:04.536Z,16.20
2018-04-30T22:38:32.410Z,16.10
2018-04-30T22:41:00.065Z,69.50
2018-04-30T22:43:27.760Z,70.80
2018-04-30T22:45:55.592Z,89.50
2018-04-30T22:48:23.240Z,37.67
2018-04-30T22:50:51.230Z,31.63
2018-04-30T22:53:18.883Z,27.40
2018-04-30T22:55:46.520Z,19.23
2018-04-30T22:58:14.413Z,13.20
2018-04-30T23:00:42.057Z,21.27
2018-04-30T23:03:09.842Z,13.73
2018-04-30T23:05:37.684Z,16.13
2018-04-30T23:08:05.469Z,10.63
2018-04-30T23:10:33.342Z,9.63
2018-04-30T23:13:01.287Z,9.93
2018-04-30T23:15:28.923Z,10.80
2018-04-30T23:17:57.329Z,9.20
2018-04-30T23:20:25.210Z,15.27
2018-04-30T23:22:52.857Z,7.23
2018-04-30T23:25:20.641Z,9.07
2018-04-30T23:27:48.335Z,14.30
2018-04-30T23:30:16.881Z,7.17
2018-04-30T23:32:44.755Z,14.67
2018-04-30T23:35:12.697Z,11.23
2018-04-30T23:37:40.482Z,12.93
2018-04-30T23:40:08.127Z,14.60
2018-04-30T23:42:36.010Z,11.13
2018-04-30T23:45:03.674Z,12.60
2018-04-30T23:47:31.353Z,14.60
2018-04-30T23:49:59.413Z,11.07
2018-04-30T23:52:27.275Z,8.93
2018-04-30T23:54:54.920Z,9.60
2018-04-30T23:57:22.604Z,15.73
2018-04-30T23:59:50.469Z,17.80
